createdAt,value
2022-11-14T00:00:56.425Z,9.50
2022-11-14T00:03:44.730Z,9.00
2022-11-14T00:06:32.290Z,6.50
2022-11-14T00:09:19.713Z,7.00
2022-11-14T00:12:07.137Z,10.25
2022-11-14T00:14:56.999Z,8.00
2022-11-14T00:17:44.627Z,10.25
2022-11-14T00:20:31.944Z,12.50
2022-11-14T00:23:20.343Z,13.00
2022-11-14T00:26:07.973Z,12.00
2022-11-14T00:28:56.620Z,13.00
2022-11-14T00:31:44.259Z,13.50
2022-11-14T00:34:32.399Z,12.25
2022-11-14T00:37:20.290Z,11.75
2022-11-14T00:40:09.208Z,12.50
2022-11-14T00:42:57.106Z,11.50
2022-11-14T00:45:47.952Z,11.00
2022-11-14T00:48:36.058Z,12.50
2022-11-14T00:51:23.717Z,11.75
2022-11-14T00:54:11.367Z,12.50
2022-11-14T00:56:58.741Z,12.00
2022-11-14T00:59:45.739Z,12.25
2022-11-14T01:02:33.066Z,14.75
2022-11-14T01:05:20.051Z,12.00
2022-11-14T01:08:07.657Z,14.75
2022-11-14T01:10:55.072Z,13.00
2022-11-14T01:13:42.488Z,10.75
2022-11-14T01:16:30.116Z,11.50
2022-11-14T01:19:17.604Z,13.75
2022-11-14T01:22:06.609Z,12.75
2022-11-14T01:24:56.499Z,13.25
2022-11-14T01:27:44.177Z,10.25
2022-11-14T01:30:31.538Z,12.50
2022-11-14T01:33:19.286Z,12.00
2022-11-14T01:36:07.567Z,10.75
2022-11-14T01:38:55.713Z,11.75
2022-11-14T01:41:43.432Z,14.25
2022-11-14T01:44:45.489Z,10.75
2022-11-14T01:47:34.198Z,12.00
2022-11-14T01:50:21.871Z,11.75
2022-11-14T01:53:10.136Z,13.00
2022-11-14T01:56:00.156Z,11.00
2022-11-14T01:58:51.091Z,10.25
2022-11-14T02:01:46.392Z,11.75
2022-11-14T02:04:37.191Z,12.00
2022-11-14T02:07:27.378Z,10.50
2022-11-14T02:10:21.432Z,11.75
2022-11-14T02:13:09.747Z,13.00
2022-11-14T02:15:57.712Z,13.00
2022-11-14T02:18:45.546Z,11.75
2022-11-14T02:21:33.254Z,10.50
2022-11-14T02:24:21.587Z,11.75
2022-11-14T02:27:09.304Z,12.75
2022-11-14T02:29:57.043Z,12.25
2022-11-14T02:33:09.365Z,11.25
2022-11-14T02:35:52.419Z,11.00
2022-11-14T02:38:40.093Z,10.25
2022-11-14T02:41:27.916Z,10.50
2022-11-14T02:44:15.589Z,10.00
2022-11-14T02:47:02.889Z,10.50
2022-11-14T02:49:50.541Z,9.25
2022-11-14T02:52:38.255Z,10.00
2022-11-14T02:55:25.705Z,13.25
2022-11-14T02:58:13.835Z,17.50
2022-11-14T03:01:19.844Z,22.75
2022-11-14T03:04:08.471Z,20.00
2022-11-14T03:06:56.238Z,18.50
2022-11-14T03:09:43.850Z,19.00
2022-11-14T03:12:31.941Z,25.25
2022-11-14T03:15:19.668Z,25.75
2022-11-14T03:18:07.584Z,22.00
2022-11-14T03:20:55.747Z,22.75
2022-11-14T03:23:43.910Z,19.75
2022-11-14T03:26:31.513Z,18.75
2022-11-14T03:29:19.167Z,18.00
2022-11-14T03:32:07.230Z,19.75
2022-11-14T03:34:55.076Z,17.75
2022-11-14T03:37:42.989Z,21.25
2022-11-14T03:40:30.447Z,21.75
2022-11-14T03:43:19.348Z,18.25
2022-11-14T03:46:07.457Z,27.75
2022-11-14T03:48:54.691Z,22.00
2022-11-14T03:51:42.667Z,22.00
2022-11-14T03:54:30.235Z,20.00
2022-11-14T03:57:18.178Z,22.75
2022-11-14T04:00:06.045Z,20.00
2022-11-14T04:02:53.799Z,18.50
2022-11-14T04:05:41.512Z,19.25
2022-11-14T04:08:29.371Z,20.75
2022-11-14T04:11:17.099Z,20.25
2022-11-14T04:14:04.919Z,20.00
2022-11-14T04:16:52.640Z,20.00
2022-11-14T04:19:40.771Z,20.00
2022-11-14T04:22:28.268Z,20.00
2022-11-14T04:25:16.142Z,19.50
2022-11-14T04:28:03.730Z,18.75
2022-11-14T04:30:51.379Z,19.00
2022-11-14T04:33:38.879Z,17.75
2022-11-14T04:36:26.685Z,19.75
2022-11-14T04:39:14.610Z,20.00
2022-11-14T04:42:02.337Z,21.75
2022-11-14T04:44:50.194Z,20.00
2022-11-14T04:47:38.627Z,20.00
2022-11-14T04:50:27.451Z,20.00
2022-11-14T04:53:15.555Z,21.25
2022-11-14T04:56:03.532Z,21.50
2022-11-14T04:58:52.271Z,20.00
2022-11-14T05:01:40.512Z,18.50
2022-11-14T05:04:28.396Z,19.50
2022-11-14T05:07:17.096Z,18.00
2022-11-14T05:10:05.404Z,19.50
2022-11-14T05:12:56.666Z,20.00
2022-11-14T05:15:44.147Z,17.50
2022-11-14T05:18:32.195Z,16.50
2022-11-14T05:21:20.620Z,17.00
2022-11-14T05:24:09.440Z,18.00
2022-11-14T05:26:57.093Z,19.00
2022-11-14T05:29:45.456Z,17.75
2022-11-14T05:32:33.528Z,19.75
2022-11-14T05:35:21.164Z,20.00
2022-11-14T05:38:09.177Z,18.00
2022-11-14T05:40:57.113Z,16.50
2022-11-14T05:43:46.005Z,16.50
2022-11-14T05:46:33.289Z,17.25
2022-11-14T05:49:22.186Z,16.75
2022-11-14T05:52:09.997Z,17.25
2022-11-14T05:54:57.950Z,15.00
2022-11-14T05:57:45.431Z,13.50
2022-11-14T06:00:39.487Z,18.50
2022-11-14T06:03:32.429Z,13.75
2022-11-14T06:06:24.274Z,13.50
2022-11-14T06:09:12.027Z,15.25
2022-11-14T06:12:00.317Z,13.50
2022-11-14T06:14:48.025Z,14.00
2022-11-14T06:17:35.889Z,14.00
2022-11-14T06:20:23.660Z,13.25
2022-11-14T06:23:11.726Z,16.25
2022-11-14T06:26:03.622Z,12.75
2022-11-14T06:28:52.540Z,13.75
2022-11-14T06:31:40.052Z,13.00
2022-11-14T06:34:28.936Z,13.00
2022-11-14T06:37:16.537Z,13.25
2022-11-14T06:40:05.873Z,13.25
2022-11-14T06:42:53.421Z,12.00
2022-11-14T06:45:41.158Z,12.50
2022-11-14T06:48:29.101Z,14.00
2022-11-14T06:51:18.197Z,11.50
2022-11-14T06:54:05.944Z,13.75
2022-11-14T06:56:53.813Z,13.25
2022-11-14T06:59:41.544Z,12.00
2022-11-14T07:02:30.787Z,14.00
2022-11-14T07:05:18.426Z,12.75
2022-11-14T07:08:06.117Z,13.00
2022-11-14T07:10:53.874Z,12.50
2022-11-14T07:13:41.730Z,11.75
2022-11-14T07:16:32.767Z,13.25
2022-11-14T07:19:20.682Z,11.25
2022-11-14T07:22:08.284Z,11.00
2022-11-14T07:24:56.667Z,15.50
2022-11-14T07:27:44.495Z,14.00
2022-11-14T07:30:32.378Z,15.75
2022-11-14T07:33:19.747Z,14.00
2022-11-14T07:36:07.557Z,13.00
2022-11-14T07:38:56.533Z,15.75
2022-11-14T07:41:44.501Z,12.50
2022-11-14T07:44:32.403Z,15.50
2022-11-14T07:47:19.828Z,22.00
2022-11-14T07:50:07.511Z,22.00
2022-11-14T07:52:55.763Z,26.75
2022-11-14T07:55:44.036Z,26.50
2022-11-14T07:58:31.966Z,27.75
2022-11-14T08:01:20.024Z,27.00
2022-11-14T08:04:07.633Z,28.25
2022-11-14T08:06:55.395Z,30.75
2022-11-14T08:09:43.280Z,26.00
2022-11-14T08:12:30.796Z,27.25
2022-11-14T08:15:19.323Z,26.00
2022-11-14T08:18:07.112Z,27.25
2022-11-14T08:20:55.620Z,23.00
2022-11-14T08:23:43.629Z,24.00
2022-11-14T08:26:34.256Z,23.50
2022-11-14T08:29:22.475Z,24.00
2022-11-14T08:32:10.014Z,23.25
2022-11-14T08:34:57.749Z,21.75
2022-11-14T08:37:45.832Z,22.00
2022-11-14T08:40:33.688Z,20.00
2022-11-14T08:43:21.079Z,20.50
2022-11-14T08:46:08.837Z,20.00
2022-11-14T08:48:56.644Z,20.00
2022-11-14T08:51:44.466Z,22.00
2022-11-14T08:54:31.884Z,19.00
2022-11-14T08:57:20.193Z,22.25
2022-11-14T09:00:08.205Z,27.00
2022-11-14T09:02:56.299Z,25.75
2022-11-14T09:05:44.450Z,26.00
2022-11-14T09:08:33.230Z,27.00
2022-11-14T09:11:21.106Z,26.75
2022-11-14T09:14:08.967Z,28.00
2022-11-14T09:16:56.326Z,28.00
2022-11-14T09:19:44.164Z,27.75
2022-11-14T09:22:33.249Z,27.75
2022-11-14T09:25:23.161Z,29.75
2022-11-14T09:28:11.071Z,28.25
2022-11-14T09:31:05.695Z,26.50
2022-11-14T09:33:53.299Z,27.00
2022-11-14T09:36:41.363Z,30.50
2022-11-14T09:39:29.352Z,31.75
2022-11-14T09:42:23.369Z,29.00
2022-11-14T09:45:18.533Z,29.00
2022-11-14T09:48:13.794Z,28.75
2022-11-14T09:51:07.895Z,30.75
2022-11-14T09:53:55.701Z,29.75
2022-11-14T09:56:43.424Z,28.75
2022-11-14T09:59:31.568Z,30.00
2022-11-14T10:02:27.173Z,28.75
2022-11-14T10:05:15.440Z,28.75
2022-11-14T10:08:13.677Z,28.50
2022-11-14T10:11:07.796Z,28.75
2022-11-14T10:14:05.174Z,27.75
2022-11-14T10:17:10.801Z,28.00
2022-11-14T10:20:19.838Z,28.00
2022-11-14T10:23:18.006Z,28.00
2022-11-14T10:26:08.818Z,29.75
2022-11-14T10:29:08.355Z,28.50
2022-11-14T10:31:56.372Z,27.25
2022-11-14T10:34:44.130Z,28.75
2022-11-14T10:37:32.232Z,28.50
2022-11-14T10:40:21.759Z,28.75
2022-11-14T10:43:22.747Z,28.25
2022-11-14T10:46:10.268Z,28.75
2022-11-14T10:49:00.366Z,28.00
2022-11-14T10:51:55.731Z,28.00
2022-11-14T10:54:42.800Z,27.00
2022-11-14T10:57:30.495Z,28.75
2022-11-14T11:00:24.312Z,27.50
2022-11-14T11:03:11.817Z,28.75
2022-11-14T11:05:59.608Z,26.00
2022-11-14T11:09:04.991Z,25.00
2022-11-14T11:12:00.814Z,27.75
2022-11-14T11:14:50.306Z,29.00
2022-11-14T11:17:42.919Z,27.00
2022-11-14T11:20:35.565Z,27.50
2022-11-14T11:23:28.586Z,27.00
2022-11-14T11:26:23.220Z,27.00
2022-11-14T11:29:14.701Z,26.75
2022-11-14T11:32:02.762Z,26.75
2022-11-14T11:34:51.103Z,25.00
2022-11-14T11:37:42.281Z,23.75
2022-11-14T11:40:31.200Z,24.00
2022-11-14T11:43:39.269Z,23.75
2022-11-14T11:46:27.246Z,23.75
2022-11-14T11:49:19.792Z,23.75
2022-11-14T11:52:13.023Z,21.25
2022-11-14T11:55:00.657Z,22.00
2022-11-14T11:57:50.389Z,23.00
2022-11-14T12:00:38.675Z,23.00
2022-11-14T12:03:29.428Z,23.00
2022-11-14T12:06:26.528Z,21.75
2022-11-14T12:09:20.335Z,24.00
2022-11-14T12:12:12.114Z,20.50
2022-11-14T12:15:03.533Z,23.00
2022-11-14T12:18:10.876Z,22.00
2022-11-14T12:20:58.770Z,21.50
2022-11-14T12:23:49.079Z,23.00
2022-11-14T12:26:55.040Z,23.00
2022-11-14T12:30:01.148Z,21.25
2022-11-14T12:32:55.432Z,23.00
2022-11-14T12:35:51.996Z,22.25
2022-11-14T12:38:55.828Z,24.00
2022-11-14T12:41:43.701Z,23.00
2022-11-14T12:44:31.571Z,22.00
2022-11-14T12:47:23.330Z,23.00
2022-11-14T12:50:32.683Z,22.75
2022-11-14T12:53:38.278Z,22.50
2022-11-14T12:56:35.621Z,21.75
2022-11-14T12:59:48.921Z,22.25
2022-11-14T13:02:39.469Z,22.00
2022-11-14T13:05:50.922Z,23.00
2022-11-14T13:08:53.615Z,22.00
2022-11-14T13:12:03.669Z,22.00
2022-11-14T13:15:14.631Z,22.00
2022-11-14T13:18:24.546Z,22.50
2022-11-14T13:21:50.525Z,21.00
2022-11-14T13:24:56.294Z,23.75
2022-11-14T13:31:10.541Z,23.00
2022-11-14T13:34:02.943Z,24.25
2022-11-14T13:37:00.448Z,23.00
2022-11-14T13:39:51.953Z,24.00
2022-11-14T13:43:14.591Z,22.75
2022-11-14T13:46:05.958Z,23.00
2022-11-14T13:48:57.231Z,22.00
2022-11-14T13:51:46.425Z,22.00
2022-11-14T13:54:34.468Z,23.25
2022-11-14T13:57:31.735Z,21.00
2022-11-14T14:00:21.201Z,20.25
2022-11-14T14:03:28.030Z,21.50
2022-11-14T14:06:16.183Z,22.50
2022-11-14T14:09:10.938Z,22.00
2022-11-14T14:12:02.401Z,22.00
2022-11-14T14:15:06.096Z,22.00
2022-11-14T14:17:57.415Z,22.00
2022-11-14T14:21:00.016Z,22.00
2022-11-14T14:23:51.239Z,22.75
2022-11-14T14:27:02.037Z,23.00
2022-11-14T14:30:07.818Z,21.75
2022-11-14T14:33:05.948Z,20.50
2022-11-14T14:35:55.678Z,23.00
2022-11-14T14:38:44.036Z,22.75
2022-11-14T14:41:33.698Z,22.00
2022-11-14T14:44:39.599Z,21.50
2022-11-14T14:47:27.186Z,20.00
2022-11-14T14:50:26.214Z,20.25
2022-11-14T14:53:24.518Z,21.25
2022-11-14T14:56:23.494Z,21.50
2022-11-14T14:59:19.080Z,20.50
2022-11-14T15:02:14.705Z,20.75
2022-11-14T15:05:04.251Z,22.00
2022-11-14T15:07:52.871Z,21.75
2022-11-14T15:10:42.686Z,20.75
2022-11-14T15:13:31.560Z,20.50
2022-11-14T15:16:20.101Z,21.25
2022-11-14T15:19:08.143Z,20.50
2022-11-14T15:22:08.417Z,19.25
2022-11-14T15:25:14.487Z,20.00
2022-11-14T15:28:04.109Z,20.25
2022-11-14T15:31:06.103Z,20.25
2022-11-14T15:34:04.137Z,21.00
2022-11-14T15:37:10.127Z,20.00
2022-11-14T15:40:16.655Z,20.75
2022-11-14T15:43:24.375Z,20.00
2022-11-14T15:46:30.484Z,18.00
2022-11-14T15:49:22.474Z,20.50
2022-11-14T15:52:20.082Z,19.75
2022-11-14T15:55:15.039Z,20.25
2022-11-14T16:01:15.886Z,20.00
2022-11-14T16:04:03.652Z,18.00
2022-11-14T16:06:52.488Z,20.25
2022-11-14T16:09:41.796Z,20.00
2022-11-14T16:12:30.507Z,17.25
2022-11-14T16:15:19.379Z,20.25
2022-11-14T16:18:09.118Z,20.00
2022-11-14T16:21:00.860Z,20.00
2022-11-14T16:23:55.341Z,19.75
2022-11-14T16:26:43.094Z,20.00
2022-11-14T16:29:36.325Z,18.25
2022-11-14T16:32:24.983Z,20.75
2022-11-14T16:35:16.179Z,18.50
2022-11-14T16:38:04.472Z,20.00
2022-11-14T16:40:52.628Z,19.00
2022-11-14T16:43:42.440Z,19.50
2022-11-14T16:46:33.101Z,22.00
2022-11-14T16:49:22.366Z,20.00
2022-11-14T16:52:13.388Z,20.50
2022-11-14T16:55:00.916Z,18.25
2022-11-14T16:57:50.420Z,18.00
2022-11-14T17:00:38.746Z,18.50
2022-11-14T17:03:27.680Z,19.25
2022-11-14T17:06:16.046Z,20.75
2022-11-14T17:09:03.779Z,21.25
2022-11-14T17:11:52.890Z,20.00
2022-11-14T17:14:49.687Z,18.50
2022-11-14T17:17:39.158Z,17.50
2022-11-14T17:20:27.769Z,18.75
2022-11-14T17:23:19.232Z,20.00
2022-11-14T17:26:09.828Z,16.75
2022-11-14T17:28:58.178Z,18.75
2022-11-14T17:31:47.151Z,18.00
2022-11-14T17:34:35.613Z,18.25
2022-11-14T17:37:24.132Z,20.00
2022-11-14T17:40:15.493Z,17.75
2022-11-14T17:43:04.072Z,19.00
2022-11-14T17:45:58.772Z,20.00
2022-11-14T17:48:46.901Z,18.25
2022-11-14T17:51:34.363Z,20.00
2022-11-14T17:54:24.746Z,15.50
2022-11-14T17:57:15.504Z,16.25
2022-11-14T18:00:07.396Z,19.25
2022-11-14T18:02:55.821Z,19.75
2022-11-14T18:05:43.787Z,19.00
2022-11-14T18:08:32.433Z,17.50
2022-11-14T18:11:21.770Z,17.75
2022-11-14T18:14:10.560Z,19.00
2022-11-14T18:17:12.517Z,17.25
2022-11-14T18:20:03.977Z,18.75
2022-11-14T18:22:51.682Z,18.50
2022-11-14T18:25:38.987Z,19.25
2022-11-14T18:28:27.164Z,19.75
2022-11-14T18:31:16.248Z,19.00
2022-11-14T18:34:04.464Z,17.75
2022-11-14T18:36:52.063Z,20.75
2022-11-14T18:39:39.918Z,16.00
2022-11-14T18:42:27.803Z,17.50
2022-11-14T18:45:15.623Z,16.25
2022-11-14T18:48:03.588Z,17.25
2022-11-14T18:50:51.442Z,19.00
2022-11-14T18:53:39.243Z,16.50
2022-11-14T18:56:27.436Z,17.00
2022-11-14T18:59:15.043Z,17.50
2022-11-14T19:02:03.361Z,16.75
2022-11-14T19:04:50.876Z,18.00
2022-11-14T19:07:38.358Z,18.25
2022-11-14T19:10:25.546Z,18.50
2022-11-14T19:13:13.810Z,18.75
2022-11-14T19:16:05.873Z,17.25
2022-11-14T19:18:53.561Z,15.75
2022-11-14T19:21:41.812Z,16.75
2022-11-14T19:24:29.630Z,17.75
2022-11-14T19:27:17.554Z,19.25
2022-11-14T19:30:05.603Z,17.75
2022-11-14T19:32:53.264Z,17.25
2022-11-14T19:35:41.083Z,16.50
2022-11-14T19:38:28.852Z,17.75
2022-11-14T19:41:16.826Z,19.75
2022-11-14T19:44:04.832Z,17.50
2022-11-14T19:46:52.462Z,13.75
2022-11-14T19:49:41.404Z,16.00
2022-11-14T19:52:28.961Z,16.75
2022-11-14T19:55:17.078Z,15.00
2022-11-14T19:58:04.542Z,15.50
2022-11-14T20:00:52.678Z,14.50
2022-11-14T20:03:40.891Z,17.50
2022-11-14T20:06:29.885Z,18.25
2022-11-14T20:09:17.821Z,14.50
2022-11-14T20:12:05.895Z,17.50
2022-11-14T20:14:52.955Z,18.00
2022-11-14T20:17:40.147Z,17.00
2022-11-14T20:20:28.118Z,17.50
2022-11-14T20:23:15.948Z,18.25
2022-11-14T20:26:08.429Z,15.75
2022-11-14T20:28:58.226Z,15.75
2022-11-14T20:31:45.628Z,17.75
2022-11-14T20:34:32.593Z,16.75
2022-11-14T20:37:20.796Z,16.50
2022-11-14T20:40:08.569Z,16.00
2022-11-14T20:42:55.435Z,17.00
2022-11-14T20:45:43.037Z,16.75
2022-11-14T20:48:31.101Z,15.75
2022-11-14T20:51:20.056Z,13.50
2022-11-14T20:54:08.669Z,18.00
2022-11-14T20:56:55.948Z,17.75
2022-11-14T20:59:44.229Z,16.00
2022-11-14T21:02:33.314Z,18.25
2022-11-14T21:05:20.592Z,16.25
2022-11-14T21:08:08.073Z,17.00
2022-11-14T21:11:00.101Z,17.50
2022-11-14T21:14:00.101Z,15.00
2022-11-14T21:16:47.609Z,14.25
2022-11-14T21:19:35.696Z,12.50
2022-11-14T21:22:23.778Z,13.50
2022-11-14T21:25:13.655Z,11.00
2022-11-14T21:28:02.870Z,12.00
2022-11-14T21:30:51.519Z,12.00
2022-11-14T21:33:38.843Z,14.00
2022-11-14T21:36:45.348Z,13.00
2022-11-14T21:39:34.160Z,13.00
2022-11-14T21:42:22.640Z,13.75
2022-11-14T21:45:10.764Z,14.00
2022-11-14T21:47:58.590Z,11.25
2022-11-14T21:50:46.645Z,12.50
2022-11-14T21:53:35.011Z,13.00
2022-11-14T21:56:24.211Z,14.00
2022-11-14T21:59:16.719Z,13.50
2022-11-14T22:02:22.586Z,11.50
2022-11-14T22:05:10.155Z,13.25
2022-11-14T22:07:58.815Z,11.00
2022-11-14T22:10:46.403Z,11.00
2022-11-14T22:13:34.817Z,13.50
2022-11-14T22:16:22.290Z,13.50
2022-11-14T22:19:10.016Z,14.50
2022-11-14T22:21:57.675Z,13.50
2022-11-14T22:24:45.646Z,15.00
2022-11-14T22:27:33.127Z,14.50
2022-11-14T22:30:20.879Z,12.75
2022-11-14T22:33:08.417Z,13.25
2022-11-14T22:35:56.339Z,14.25
2022-11-14T22:38:44.292Z,12.00
2022-11-14T22:41:33.719Z,10.75
2022-11-14T22:44:21.788Z,10.75
2022-11-14T22:47:09.645Z,13.00
2022-11-14T22:49:57.011Z,11.00
2022-11-14T22:52:45.241Z,11.00
2022-11-14T22:55:32.947Z,11.00
2022-11-14T22:58:21.025Z,10.75
2022-11-14T23:01:15.913Z,10.25
2022-11-14T23:04:05.022Z,12.00
2022-11-14T23:06:52.705Z,10.50
2022-11-14T23:09:40.279Z,13.25
2022-11-14T23:12:27.692Z,12.00
2022-11-14T23:15:15.403Z,18.00
2022-11-14T23:18:03.177Z,13.50
2022-11-14T23:20:51.049Z,13.25
2022-11-14T23:23:38.630Z,11.75
2022-11-14T23:26:26.528Z,17.25
2022-11-14T23:29:16.751Z,13.50
2022-11-14T23:32:04.502Z,18.25
2022-11-14T23:34:51.975Z,16.00
2022-11-14T23:37:40.085Z,13.00
2022-11-14T23:40:28.017Z,12.00
2022-11-14T23:43:15.488Z,12.00
2022-11-14T23:46:03.816Z,11.50
2022-11-14T23:48:52.041Z,11.75
2022-11-14T23:51:40.809Z,12.00
2022-11-14T23:54:28.424Z,14.75
2022-11-14T23:57:15.905Z,13.00
